Robert Maersk — 0XFP2 — position and weather

sailwx.info

Track history (hours):
 
Tides and Currents Weather Stations Pressure Air Temp Water Temp Dewpoint Dewpoint Depression Visibility Wind Speed Wind Dir Waves Ship Positions

Robert Maersk

Last reported at 2018-Jun-10 17:36 UTC. Time now 2018-Jun-18 15:28 UTC.
Position N 34°41' E 033°18'.

Length 172 m; draft 11.8 m.

Type: Tanker. MMSI: 220208000.

Date/timePositionNaut miles runAvg speedWind from/ knotsBaromVisibWave heightAir tempDewpointWater temp
2018-Jun-10 17:36N 34°41' E 033°18'0 0.1
2018-Jun-10 17:30N 34°41' E 033°18'0 0.0
2018-Jun-10 16:54N 34°41' E 033°18'0 0.0
2018-Jun-10 16:30N 34°41' E 033°18'0 0.0
2018-Jun-10 13:21N 34°41' E 033°18'0 0.0
2018-Jun-10 11:18N 34°41' E 033°18'0 0.0
2018-Jun-10 10:54N 34°41' E 033°18'0 0.1
2018-Jun-10 09:50N 34°41' E 033°18'0 0.6
2018-Jun-10 09:27N 34°41' E 033°18'2 5.1
2018-Jun-10 09:00N 34°40' E 033°16'7 8.5
2018-Jun-10 08:13N 34°34' E 033°11'  
2018-Jun-07 06:13N 36°05' E 015°30'311.8
2018-Jun-07 06:00N 36°06' E 015°27'711.8
2018-Jun-07 05:27N 36°08' E 015°19'1011.7
2018-Jun-07 04:35N 36°10' E 015°07'511.8
2018-Jun-07 04:08N 36°11' E 015°01'211.8
2018-Jun-07 04:00N 36°12' E 014°59'611.6
2018-Jun-07 03:30N 36°13' E 014°52'611.6
2018-Jun-07 02:57N 36°14' E 014°44'1311.7
2018-Jun-07 01:50N 36°18' E 014°28'411.6
2018-Jun-07 01:30N 36°19' E 014°24'611.4
2018-Jun-07 01:00N 36°20' E 014°17'1611.3
2018-Jun-06 23:37N 36°26' E 013°59'1411.8
2018-Jun-06 22:25N 36°31' E 013°42'511.7
2018-Jun-06 21:58N 36°33' E 013°36'511.6
2018-Jun-06 21:30N 36°35' E 013°30'711.6
2018-Jun-06 20:53N 36°38' E 013°22'611.3
2018-Jun-06 20:22N 36°40' E 013°15'411.3
2018-Jun-06 20:00N 36°41' E 013°10'611.4
2018-Jun-06 19:30N 36°43' E 013°03'1211.4
2018-Jun-06 18:27N 36°48' E 012°49'48411.9
2018-Jun-05 01:50N 37°03' E 002°44'1011.1
2018-Jun-05 00:55N 37°02' E 002°31'2412.2
2018-Jun-04 22:58N 36°57' E 002°02'613.0
2018-Jun-04 22:30N 36°56' E 001°54'2413.1
2018-Jun-04 20:39N 36°52' E 001°24'413.1
2018-Jun-04 20:22N 36°52' E 001°20'2212.5
2018-Jun-04 18:34N 36°48' E 000°52'212.5
2018-Jun-04 18:26N 36°47' E 000°50'2512.4
2018-Jun-04 16:27N 36°43' E 000°20'512.0
2018-Jun-04 15:59N 36°42' E 000°13'612.0
2018-Jun-04 15:28N 36°41' E 000°05'1011.9
2018-Jun-04 14:39N 36°40' W 000°07'24212.9
2018-Jun-03 19:53N 36°02' W 005°04'514.1
2018-Jun-03 19:30N 36°01' W 005°10'714.4
2018-Jun-03 19:00N 36°03' W 005°19'610.5
2018-Jun-03 18:29N 36°06' W 005°25'0 0.3
2018-Jun-03 17:48N 36°06' W 005°25'0 0.1
2018-Jun-03 17:21N 36°06' W 005°25'0 0.1
2018-Jun-03 17:00N 36°06' W 005°25'1 1.1
2018-Jun-03 16:29N 36°07' W 005°24'2 3.9
2018-Jun-03 16:00N 36°08' W 005°26'0 0.0
2018-Jun-03 11:06N 36°08' W 005°26'0 0.0
2018-Jun-03 10:48N 36°08' W 005°26'0 0.0
2018-Jun-01 22:54N 36°08' W 005°26'0 0.0
2018-Jun-01 22:24N 36°08' W 005°26'0 0.0
2018-Jun-01 04:54N 36°08' W 005°26'0 0.0
2018-Jun-01 04:30N 36°08' W 005°26'0 0.0
2018-Jun-01 00:12N 36°08' W 005°26'0 0.0
2018-Jun-01 00:00N 36°08' W 005°26'0 0.0
2018-May-31 23:30N 36°08' W 005°26'0 0.0
2018-May-31 23:00N 36°08' W 005°26'0 0.0
2018-May-31 22:24N 36°08' W 005°26'0 0.0
2018-May-31 22:00N 36°08' W 005°26'  
Track history (hours):
 
Tides and Currents Weather Stations Pressure Air Temp Water Temp Dewpoint Dewpoint Depression Visibility Wind Speed Wind Dir Waves Ship Positions

Robert Maersk

Last reported at 2018-Jun-10 17:36 UTC. Time now 2018-Jun-18 15:28 UTC.
Position N 34°41' E 033°18'.

Length 172 m; draft 11.8 m.

Type: Tanker. MMSI: 220208000.

Date/timePositionNaut miles runAvg speedWind from/ knotsBaromVisibWave heightAir tempDewpointWater temp
2018-Jun-10 17:36N 34°41' E 033°18'0 0.1
2018-Jun-10 17:30N 34°41' E 033°18'0 0.0
2018-Jun-10 16:54N 34°41' E 033°18'0 0.0
2018-Jun-10 16:30N 34°41' E 033°18'0 0.0
2018-Jun-10 13:21N 34°41' E 033°18'0 0.0
2018-Jun-10 11:18N 34°41' E 033°18'0 0.0
2018-Jun-10 10:54N 34°41' E 033°18'0 0.1
2018-Jun-10 09:50N 34°41' E 033°18'0 0.6
2018-Jun-10 09:27N 34°41' E 033°18'2 5.1
2018-Jun-10 09:00N 34°40' E 033°16'7 8.5
2018-Jun-10 08:13N 34°34' E 033°11'  
2018-Jun-07 06:13N 36°05' E 015°30'311.8
2018-Jun-07 06:00N 36°06' E 015°27'711.8
2018-Jun-07 05:27N 36°08' E 015°19'1011.7
2018-Jun-07 04:35N 36°10' E 015°07'511.8
2018-Jun-07 04:08N 36°11' E 015°01'211.8
2018-Jun-07 04:00N 36°12' E 014°59'611.6
2018-Jun-07 03:30N 36°13' E 014°52'611.6
2018-Jun-07 02:57N 36°14' E 014°44'1311.7
2018-Jun-07 01:50N 36°18' E 014°28'411.6
2018-Jun-07 01:30N 36°19' E 014°24'611.4
2018-Jun-07 01:00N 36°20' E 014°17'1611.3
2018-Jun-06 23:37N 36°26' E 013°59'1411.8
2018-Jun-06 22:25N 36°31' E 013°42'511.7
2018-Jun-06 21:58N 36°33' E 013°36'511.6
2018-Jun-06 21:30N 36°35' E 013°30'711.6
2018-Jun-06 20:53N 36°38' E 013°22'611.3
2018-Jun-06 20:22N 36°40' E 013°15'411.3
2018-Jun-06 20:00N 36°41' E 013°10'611.4
2018-Jun-06 19:30N 36°43' E 013°03'1211.4
2018-Jun-06 18:27N 36°48' E 012°49'48411.9
2018-Jun-05 01:50N 37°03' E 002°44'1011.1
2018-Jun-05 00:55N 37°02' E 002°31'2412.2
2018-Jun-04 22:58N 36°57' E 002°02'613.0
2018-Jun-04 22:30N 36°56' E 001°54'2413.1
2018-Jun-04 20:39N 36°52' E 001°24'413.1
2018-Jun-04 20:22N 36°52' E 001°20'2212.5
2018-Jun-04 18:34N 36°48' E 000°52'212.5
2018-Jun-04 18:26N 36°47' E 000°50'2512.4
2018-Jun-04 16:27N 36°43' E 000°20'512.0
2018-Jun-04 15:59N 36°42' E 000°13'612.0
2018-Jun-04 15:28N 36°41' E 000°05'1011.9
2018-Jun-04 14:39N 36°40' W 000°07'24212.9
2018-Jun-03 19:53N 36°02' W 005°04'514.1
2018-Jun-03 19:30N 36°01' W 005°10'714.4
2018-Jun-03 19:00N 36°03' W 005°19'610.5
2018-Jun-03 18:29N 36°06' W 005°25'0 0.3
2018-Jun-03 17:48N 36°06' W 005°25'0 0.1
2018-Jun-03 17:21N 36°06' W 005°25'0 0.1
2018-Jun-03 17:00N 36°06' W 005°25'1 1.1
2018-Jun-03 16:29N 36°07' W 005°24'2 3.9
2018-Jun-03 16:00N 36°08' W 005°26'0 0.0
2018-Jun-03 11:06N 36°08' W 005°26'0 0.0
2018-Jun-03 10:48N 36°08' W 005°26'0 0.0
2018-Jun-01 22:54N 36°08' W 005°26'0 0.0
2018-Jun-01 22:24N 36°08' W 005°26'0 0.0
2018-Jun-01 04:54N 36°08' W 005°26'0 0.0
2018-Jun-01 04:30N 36°08' W 005°26'0 0.0
2018-Jun-01 00:12N 36°08' W 005°26'0 0.0
2018-Jun-01 00:00N 36°08' W 005°26'0 0.0
2018-May-31 23:30N 36°08' W 005°26'0 0.0
2018-May-31 23:00N 36°08' W 005°26'0 0.0
2018-May-31 22:24N 36°08' W 005°26'0 0.0
2018-May-31 22:00N 36°08' W 005°26'  

Dump ship's entire track history